createdAt,value
2018-12-03T00:02:13.867Z,5.1
2018-12-03T00:17:20.918Z,5.1
2018-12-03T00:32:38.552Z,5.1
2018-12-03T00:47:51.287Z,5
2018-12-03T01:03:03.379Z,5
2018-12-03T01:18:15.711Z,5
2018-12-03T01:33:28.250Z,5.1
2018-12-03T01:48:40.629Z,5.2
2018-12-03T02:03:53.071Z,5.3
2018-12-03T02:19:05.800Z,5.3
2018-12-03T02:34:14.088Z,5.3
2018-12-03T02:49:30.527Z,5.4
2018-12-03T03:04:42.967Z,5.5
2018-12-03T03:19:55.057Z,5.5
2018-12-03T03:35:07.618Z,5.6
2018-12-03T03:50:20.267Z,5.6
2018-12-03T04:05:33.147Z,5.7
2018-12-03T04:20:45.656Z,5.7
2018-12-03T04:35:57.979Z,5.8
2018-12-03T04:51:08.193Z,5.8
2018-12-03T05:06:23.251Z,5.9
2018-12-03T05:21:36.229Z,5.9
2018-12-03T05:36:48.563Z,5.9
2018-12-03T05:51:52.978Z,6
2018-12-03T06:07:14.171Z,6.1
2018-12-03T06:22:26.717Z,6.1
2018-12-03T06:37:39.413Z,6.1
2018-12-03T06:52:52.206Z,6.1
2018-12-03T07:08:03.829Z,6.2
2018-12-03T07:23:17.687Z,6.3
2018-12-03T07:38:30.454Z,6.3
2018-12-03T07:53:43.292Z,6.4
2018-12-03T08:08:48.453Z,6.5
2018-12-03T08:24:08.942Z,6.6
2018-12-03T08:39:21.937Z,6.7
2018-12-03T08:54:35.192Z,6.7
2018-12-03T09:09:47.837Z,7
2018-12-03T09:25:00.907Z,7.4
2018-12-03T09:40:14.302Z,7.6
2018-12-03T09:55:27.740Z,8
2018-12-03T10:10:41.181Z,8.6
2018-12-03T10:25:47.556Z,9.1
2018-12-03T10:41:09.557Z,9.8
2018-12-03T10:56:24.381Z,10.3
2018-12-03T11:11:40.695Z,10.8
2018-12-03T11:26:58.207Z,11.7
2018-12-03T11:42:06.409Z,13.5
2018-12-03T11:57:31.729Z,14.3
2018-12-03T12:12:48.866Z,14.9
2018-12-03T12:28:05.666Z,15
2018-12-03T12:43:22.441Z,14.9
2018-12-03T12:58:31.217Z,14.7
2018-12-03T13:13:54.871Z,14.4
2018-12-03T13:29:10.882Z,14.3
2018-12-03T13:44:27.041Z,14.3
2018-12-03T13:59:43.892Z,14.3
2018-12-03T14:14:55.076Z,14
2018-12-03T14:30:15.834Z,13.8
2018-12-03T14:45:31.854Z,13.7
2018-12-03T15:00:47.008Z,13.3
2018-12-03T15:16:02.190Z,12.9
2018-12-03T15:31:17.419Z,12.7
2018-12-03T15:46:32.507Z,12.3
2018-12-03T16:01:47.479Z,12.1
2018-12-03T16:17:02.560Z,12
2018-12-03T16:32:09.204Z,12.1
2018-12-03T16:47:32.304Z,11.9
2018-12-03T17:02:47.164Z,11.6
2018-12-03T17:18:01.719Z,11.3
2018-12-03T17:33:16.548Z,10.9
2018-12-03T17:48:28.220Z,10.8
2018-12-03T18:03:45.149Z,10.8
2018-12-03T18:18:59.744Z,11.1
2018-12-03T18:34:14.378Z,11.6
2018-12-03T18:49:18.984Z,11.8
2018-12-03T19:04:44.630Z,11.8
2018-12-03T19:19:59.122Z,11.8
2018-12-03T19:35:14.506Z,11.7
2018-12-03T19:50:28.870Z,11.6
2018-12-03T20:05:37.816Z,11.4
2018-12-03T20:20:58.935Z,11
2018-12-03T20:36:13.054Z,10.9
2018-12-03T20:51:27.455Z,10.6
2018-12-03T21:06:41.754Z,10.2
2018-12-03T21:21:55.430Z,10.1
2018-12-03T21:37:10.167Z,9.9
2018-12-03T21:52:24.535Z,10.2
2018-12-03T22:07:39.051Z,10
2018-12-03T22:22:43.862Z,10.1
2018-12-03T22:38:07.329Z,9.8
2018-12-03T22:53:21.296Z,9.8
2018-12-03T23:08:35.795Z,9.6
2018-12-03T23:23:49.341Z,9.6
2018-12-03T23:39:00.306Z,9.6
2018-12-03T23:51:22.124Z,10
